Time;durP1;ratioP1;P1;durP2;ratioP2;P2;SDS_P1;SDS_P2;PMS_P1;PMS_P2;Temp;Humidity;BMP_temperature;BMP_pressure;BME280_temperature;BME280_humidity;BME280_pressure;Samples;Min_cycle;Max_cycle;Signal;HPM_P1;HPM_P2
2023/06/13 00:00:45;;;;;;;8.90;4.47;;;22.20;74.80;;;;;;4954907;29;20472;-77
2023/06/13 00:03:14;;;;;;;6.72;4.13;;;22.10;74.80;;;;;;4954795;29;20388;-74
2023/06/13 00:05:45;;;;;;;8.93;4.00;;;22.10;75.00;;;;;;4954790;29;20093;-77
2023/06/13 00:08:17;;;;;;;8.82;3.83;;;22.10;75.00;;;;;;4955010;29;20491;-75
2023/06/13 00:10:44;;;;;;;9.32;4.53;;;22.10;75.10;;;;;;4954953;29;20439;-75
2023/06/13 00:13:10;;;;;;;12.80;4.10;;;22.00;75.10;;;;;;4954484;29;20163;-77
2023/06/13 00:15:36;;;;;;;6.88;4.10;;;22.00;75.20;;;;;;4954696;29;20123;-74
2023/06/13 00:18:01;;;;;;;9.23;4.35;;;22.00;75.30;;;;;;4954717;29;20035;-75
2023/06/13 00:20:29;;;;;;;8.60;4.07;;;21.90;75.50;;;;;;4954757;29;20039;-74
2023/06/13 00:22:56;;;;;;;7.15;4.38;;;21.90;75.50;;;;;;4954373;29;20489;-76
2023/06/13 00:25:21;;;;;;;6.78;4.05;;;21.90;75.80;;;;;;4954515;29;20050;-75
2023/06/13 00:27:47;;;;;;;8.05;4.18;;;21.80;75.80;;;;;;4954703;29;20463;-74
2023/06/13 00:30:12;;;;;;;5.60;3.92;;;21.80;75.90;;;;;;4954871;29;20070;-74
2023/06/13 00:32:38;;;;;;;11.07;4.43;;;21.80;76.00;;;;;;4954452;28;20042;-74
2023/06/13 00:35:04;;;;;;;7.68;4.45;;;21.80;76.00;;;;;;4954651;29;20027;-75
2023/06/13 00:37:34;;;;;;;7.13;4.20;;;21.70;76.00;;;;;;4954587;29;20027;-74
2023/06/13 00:39:59;;;;;;;7.43;3.80;;;21.70;76.20;;;;;;4954065;29;20027;-75
2023/06/13 00:42:25;;;;;;;9.93;4.18;;;21.60;76.30;;;;;;4954359;29;20062;-75
2023/06/13 00:44:50;;;;;;;6.85;4.22;;;21.60;76.40;;;;;;4954246;29;20436;-76
2023/06/13 00:47:17;;;;;;;9.80;4.10;;;21.60;76.90;;;;;;4954280;29;20049;-74
2023/06/13 00:49:43;;;;;;;8.27;4.40;;;21.60;79.00;;;;;;4954213;29;20032;-74
2023/06/13 00:52:09;;;;;;;10.23;5.15;;;21.50;80.50;;;;;;4954101;29;20427;-72
2023/06/13 00:54:38;;;;;;;9.38;5.13;;;21.40;81.60;;;;;;4953974;29;20027;-74
2023/06/13 00:57:05;;;;;;;10.23;5.13;;;21.40;82.50;;;;;;4953892;29;20042;-75
2023/06/13 00:59:31;;;;;;;9.02;4.80;;;21.30;83.00;;;;;;4936797;29;20395;-75
2023/06/13 01:01:59;;;;;;;10.60;5.22;;;21.20;83.80;;;;;;4954432;29;20038;-75
2023/06/13 01:04:27;;;;;;;11.63;4.80;;;21.20;84.10;;;;;;4937076;29;20114;-75
2023/06/13 01:06:52;;;;;;;12.93;4.95;;;21.10;84.70;;;;;;4936816;29;20459;-76
2023/06/13 01:09:18;;;;;;;12.40;5.30;;;21.10;84.90;;;;;;4958852;28;20040;-75
2023/06/13 01:12:10;;;;;;;9.48;4.72;;;21.00;85.30;;;;;;4960179;28;20290;-73
2023/06/13 01:14:48;;;;;;;8.15;4.57;;;20.90;85.40;;;;;;4954185;28;20415;-75
2023/06/13 01:17:24;;;;;;;9.40;4.82;;;20.90;85.80;;;;;;4962995;28;20122;-76
2023/06/13 01:19:58;;;;;;;10.07;5.18;;;20.80;86.20;;;;;;4963455;28;20067;-74
2023/06/13 01:22:35;;;;;;;9.93;4.95;;;20.80;86.80;;;;;;4936667;28;20395;-79
2023/06/13 01:25:24;;;;;;;7.20;4.85;;;20.70;87.30;;;;;;4936429;29;20384;-75
2023/06/13 01:27:53;;;;;;;11.27;4.65;;;20.60;88.10;;;;;;4953855;29;20065;-76
2023/06/13 01:30:20;;;;;;;7.57;4.50;;;20.60;88.60;;;;;;4953896;29;20412;-76
2023/06/13 01:32:47;;;;;;;10.13;4.80;;;20.60;89.00;;;;;;4953526;29;20365;-76
2023/06/13 01:35:14;;;;;;;13.75;4.90;;;20.50;89.50;;;;;;4953715;29;20027;-77
2023/06/13 01:37:40;;;;;;;9.48;4.50;;;20.50;90.00;;;;;;4936325;29;20035;-74
2023/06/13 01:40:07;;;;;;;14.15;4.65;;;20.40;90.40;;;;;;4953978;29;20042;-74
2023/06/13 01:42:33;;;;;;;9.20;4.57;;;20.40;90.40;;;;;;4953396;29;20361;-75
2023/06/13 01:44:59;;;;;;;10.43;4.97;;;20.40;90.50;;;;;;4955170;28;20042;-74
2023/06/13 01:47:40;;;;;;;10.27;4.78;;;20.40;90.70;;;;;;4957426;29;20083;-77
2023/06/13 01:50:30;;;;;;;11.77;5.10;;;20.40;90.70;;;;;;4968281;28;20105;-76
2023/06/13 01:53:07;;;;;;;9.55;4.60;;;20.30;90.50;;;;;;4968274;28;20037;-75
2023/06/13 01:55:44;;;;;;;8.30;4.60;;;20.30;90.60;;;;;;4957066;29;20059;-75
2023/06/13 01:58:15;;;;;;;11.18;5.15;;;20.20;90.40;;;;;;4957411;29;20027;-74
2023/06/13 02:00:42;;;;;;;7.72;4.57;;;20.20;90.30;;;;;;4957191;29;20031;-73
2023/06/13 02:03:10;;;;;;;15.10;5.03;;;20.20;90.40;;;;;;4957071;29;20126;-74
2023/06/13 02:05:35;;;;;;;13.00;5.15;;;20.10;90.10;;;;;;4957044;29;20451;-77
2023/06/13 02:08:02;;;;;;;8.52;4.57;;;20.10;90.00;;;;;;4957000;29;20034;-74
2023/06/13 02:10:27;;;;;;;9.40;4.90;;;20.10;89.70;;;;;;4956946;29;20063;-75
2023/06/13 02:12:53;;;;;;;9.57;4.32;;;20.10;89.10;;;;;;4957049;29;20059;-77
2023/06/13 02:15:20;;;;;;;8.18;4.70;;;20.10;89.00;;;;;;4956976;29;20043;-81
2023/06/13 02:17:47;;;;;;;7.90;4.35;;;20.10;88.70;;;;;;4957290;29;20024;-75
2023/06/13 02:20:13;;;;;;;10.43;5.20;;;20.10;88.80;;;;;;4956478;29;20042;-75
2023/06/13 02:22:38;;;;;;;10.38;4.95;;;20.10;88.90;;;;;;4956996;29;20039;-74
2023/06/13 02:25:04;;;;;;;9.35;5.07;;;20.10;89.50;;;;;;4956912;29;20071;-75
2023/06/13 02:27:30;;;;;;;10.40;5.68;;;20.10;90.00;;;;;;4956997;29;20110;-77
2023/06/13 02:29:56;;;;;;;10.23;5.15;;;20.10;90.30;;;;;;4956433;28;20031;-75
2023/06/13 02:32:23;;;;;;;9.52;5.00;;;20.10;90.80;;;;;;4967571;28;20403;-74
2023/06/13 02:34:49;;;;;;;10.32;4.90;;;20.10;91.10;;;;;;4956201;29;20129;-75
2023/06/13 02:37:15;;;;;;;10.82;5.07;;;20.00;91.40;;;;;;4956574;29;20476;-74
2023/06/13 02:39:40;;;;;;;9.63;5.07;;;20.00;91.70;;;;;;4956599;29;20035;-74
2023/06/13 02:42:06;;;;;;;11.38;5.35;;;20.00;91.80;;;;;;4956178;29;20427;-76
2023/06/13 02:44:32;;;;;;;9.65;5.10;;;20.00;92.10;;;;;;4956292;29;20163;-79
2023/06/13 02:46:58;;;;;;;8.13;4.70;;;19.90;92.20;;;;;;4939093;29;20182;-74
2023/06/13 02:49:23;;;;;;;11.18;5.15;;;19.90;92.50;;;;;;4956365;29;20019;-74
2023/06/13 02:51:49;;;;;;;9.90;5.47;;;20.00;92.70;;;;;;4956334;29;20071;-75
2023/06/13 02:54:15;;;;;;;10.38;5.18;;;19.90;92.90;;;;;;4966128;28;20027;-75
2023/06/13 02:56:40;;;;;;;11.95;5.00;;;19.90;93.10;;;;;;4956820;28;20098;-74
2023/06/13 02:59:06;;;;;;;13.00;5.22;;;19.90;93.20;;;;;;4956020;29;20114;-73
2023/06/13 03:01:32;;;;;;;11.48;5.28;;;19.90;93.30;;;;;;4956091;29;20427;-77
2023/06/13 03:03:57;;;;;;;9.70;5.05;;;19.90;93.20;;;;;;4938665;29;20059;-73
2023/06/13 03:06:24;;;;;;;9.40;5.28;;;19.90;93.20;;;;;;4956118;29;20376;-74
2023/06/13 03:08:52;;;;;;;10.55;5.40;;;19.80;93.20;;;;;;4956305;29;20027;-74
2023/06/13 03:11:18;;;;;;;11.30;5.32;;;19.80;93.30;;;;;;4956091;29;20035;-75
2023/06/13 03:13:45;;;;;;;11.48;5.90;;;19.80;93.30;;;;;;4955570;29;20035;-77
2023/06/13 03:16:11;;;;;;;11.77;5.60;;;19.80;93.30;;;;;;4956106;29;20041;-76
2023/06/13 03:18:37;;;;;;;8.85;5.07;;;19.80;93.20;;;;;;4955578;29;20038;-74
2023/06/13 03:21:03;;;;;;;11.63;5.35;;;19.80;93.20;;;;;;4955892;29;20027;-74
2023/06/13 03:23:29;;;;;;;12.55;5.05;;;19.80;92.90;;;;;;4955992;29;20459;-74
2023/06/13 03:25:55;;;;;;;12.80;5.68;;;19.80;93.10;;;;;;4955295;29;20035;-77
2023/06/13 03:28:20;;;;;;;11.77;5.57;;;19.70;93.20;;;;;;4955760;29;20038;-78
2023/06/13 03:30:46;;;;;;;11.13;6.13;;;19.70;93.20;;;;;;4955596;29;20546;-74
2023/06/13 03:33:11;;;;;;;12.65;5.43;;;19.70;92.80;;;;;;4955038;29;20031;-76
2023/06/13 03:35:38;;;;;;;10.50;5.35;;;19.70;92.80;;;;;;4938225;29;20050;-76
2023/06/13 03:38:04;;;;;;;11.90;5.75;;;19.70;92.60;;;;;;4955539;29;20023;-78
2023/06/13 03:40:29;;;;;;;12.85;5.85;;;19.70;92.50;;;;;;4955421;29;20062;-75
2023/06/13 03:42:57;;;;;;;13.95;5.70;;;19.70;92.80;;;;;;4954956;29;20077;-73
2023/06/13 03:45:24;;;;;;;8.90;4.93;;;19.70;92.90;;;;;;4955617;29;20114;-74
2023/06/13 03:47:50;;;;;;;13.27;5.20;;;19.70;93.00;;;;;;4955722;29;20019;-72
2023/06/13 03:50:16;;;;;;;11.20;5.80;;;19.70;92.90;;;;;;4955239;29;20051;-74
2023/06/13 03:52:41;;;;;;;11.75;5.93;;;19.60;92.80;;;;;;4955199;29;20031;-76
2023/06/13 03:55:07;;;;;;;14.23;5.82;;;19.60;92.50;;;;;;4955150;29;20035;-75
2023/06/13 03:57:33;;;;;;;11.77;5.60;;;19.60;92.50;;;;;;4955192;29;20039;-77
2023/06/13 03:59:58;;;;;;;14.82;5.75;;;19.60;92.30;;;;;;4954778;29;20102;-75
2023/06/13 04:02:24;;;;;;;12.50;5.82;;;19.60;92.20;;;;;;4954599;29;20031;-74
2023/06/13 04:04:52;;;;;;;13.25;5.85;;;19.60;92.10;;;;;;4938010;29;20034;-74
2023/06/13 04:07:21;;;;;;;12.73;6.00;;;19.60;91.90;;;;;;4954737;28;20090;-73
2023/06/13 04:09:47;;;;;;;13.43;5.80;;;19.60;91.70;;;;;;4955194;29;20035;-76
2023/06/13 04:12:13;;;;;;;14.50;5.82;;;19.60;91.50;;;;;;4955245;29;20125;-78
2023/06/13 04:14:39;;;;;;;12.38;5.50;;;19.60;91.50;;;;;;4954758;29;20436;-78
2023/06/13 04:17:06;;;;;;;12.38;5.60;;;19.70;91.40;;;;;;4937924;29;20042;-73
2023/06/13 04:19:32;;;;;;;10.63;5.38;;;19.70;91.30;;;;;;4954897;29;20649;-75
2023/06/13 04:21:59;;;;;;;14.45;5.95;;;19.70;91.20;;;;;;4955088;29;20023;-76
2023/06/13 04:24:25;;;;;;;13.30;5.60;;;19.70;91.30;;;;;;4955968;28;20050;-76
2023/06/13 04:26:51;;;;;;;8.57;5.40;;;19.70;90.80;;;;;;4947093;29;20118;-74
2023/06/13 04:29:18;;;;;;;13.57;6.18;;;19.70;90.90;;;;;;4954434;29;20497;-74
2023/06/13 04:31:45;;;;;;;12.40;5.70;;;19.70;90.80;;;;;;4954550;29;20118;-75
2023/06/13 04:34:13;;;;;;;14.90;6.78;;;19.80;90.70;;;;;;4954944;29;20023;-74
2023/06/13 04:36:41;;;;;;;12.95;5.60;;;19.80;90.70;;;;;;4954850;29;20460;-75
2023/06/13 04:39:07;;;;;;;13.35;6.72;;;19.90;90.80;;;;;;4954730;29;20042;-75
2023/06/13 04:41:37;;;;;;;10.88;5.40;;;19.90;90.90;;;;;;4954580;29;20046;-78
2023/06/13 04:44:10;;;;;;;11.45;6.13;;;20.00;90.90;;;;;;4954594;28;20522;-75
2023/06/13 04:46:38;;;;;;;11.88;5.65;;;20.00;90.90;;;;;;4949207;28;20035;-74
2023/06/13 04:49:07;;;;;;;11.32;6.20;;;20.00;90.90;;;;;;4956562;28;20050;-74
2023/06/13 04:51:33;;;;;;;12.63;6.32;;;20.10;90.90;;;;;;4973975;28;20047;-78
2023/06/13 04:54:00;;;;;;;12.68;5.53;;;20.20;90.80;;;;;;4974015;28;20045;-75
2023/06/13 04:56:27;;;;;;;12.25;6.10;;;20.20;90.80;;;;;;4956037;28;20026;-73
2023/06/13 04:58:53;;;;;;;13.40;6.00;;;20.30;90.80;;;;;;4964927;28;20387;-76
2023/06/13 05:01:20;;;;;;;12.48;5.82;;;20.30;90.60;;;;;;4954269;29;20015;-75
2023/06/13 05:03:47;;;;;;;10.18;5.97;;;20.40;90.70;;;;;;4954673;29;20031;-75
2023/06/13 05:06:12;;;;;;;10.27;5.90;;;20.40;90.70;;;;;;4954288;29;20085;-74
2023/06/13 05:08:38;;;;;;;15.57;6.07;;;20.50;90.60;;;;;;4954465;28;20106;-75
2023/06/13 05:11:04;;;;;;;12.70;6.22;;;20.60;90.40;;;;;;4954175;29;20472;-77
2023/06/13 05:13:30;;;;;;;13.23;5.97;;;20.70;90.30;;;;;;4936974;29;20169;-75
2023/06/13 05:15:56;;;;;;;10.73;5.70;;;20.80;90.10;;;;;;4954593;29;20467;-76
2023/06/13 05:18:24;;;;;;;11.07;5.57;;;20.90;89.90;;;;;;4954137;28;20035;-78
2023/06/13 05:20:50;;;;;;;11.65;6.00;;;21.00;90.10;;;;;;4953796;29;20106;-74
2023/06/13 05:23:16;;;;;;;13.32;6.25;;;21.20;89.40;;;;;;4953648;28;20162;-78
2023/06/13 05:25:42;;;;;;;13.73;6.25;;;21.40;88.90;;;;;;4954026;29;20095;-74
2023/06/13 05:28:07;;;;;;;13.75;5.95;;;21.80;87.70;;;;;;4954045;29;20110;-74
2023/06/13 05:30:33;;;;;;;12.23;6.10;;;22.40;86.50;;;;;;4954091;28;20394;-77
2023/06/13 05:32:59;;;;;;;12.88;5.85;;;23.00;84.90;;;;;;4953962;28;20030;-73
2023/06/13 05:35:24;;;;;;;13.98;6.20;;;23.80;82.70;;;;;;4953408;29;20031;-74
2023/06/13 05:37:51;;;;;;;16.23;6.35;;;24.50;80.90;;;;;;4953509;29;20031;-78
2023/06/13 05:40:17;;;;;;;15.35;7.20;;;25.10;79.00;;;;;;4953487;28;20110;-77
2023/06/13 05:42:43;;;;;;;13.10;5.95;;;25.90;78.00;;;;;;4936444;29;20055;-78
2023/06/13 05:45:09;;;;;;;19.30;9.05;;;26.60;76.50;;;;;;4953686;29;20515;-76
2023/06/13 05:47:35;;;;;;;19.15;6.30;;;27.30;74.80;;;;;;4954154;29;20033;-77
2023/06/13 05:50:01;;;;;;;19.27;7.93;;;27.80;73.40;;;;;;4953758;29;20031;-75
2023/06/13 05:52:27;;;;;;;17.52;7.40;;;28.30;72.30;;;;;;4953247;29;20035;-76
2023/06/13 05:54:53;;;;;;;17.48;6.78;;;28.80;71.40;;;;;;4953738;29;20110;-77
2023/06/13 05:57:18;;;;;;;12.30;5.97;;;29.30;70.50;;;;;;4953794;29;20035;-76
2023/06/13 05:59:44;;;;;;;13.02;6.10;;;29.80;69.50;;;;;;4953142;29;20042;-79
2023/06/13 06:02:11;;;;;;;12.88;6.22;;;30.30;68.70;;;;;;4953194;29;20030;-78
2023/06/13 06:04:36;;;;;;;11.32;5.50;;;30.80;67.40;;;;;;4954522;28;20095;-77
2023/06/13 06:07:03;;;;;;;14.10;5.93;;;31.10;66.30;;;;;;4961504;28;20170;-77
2023/06/13 06:09:28;;;;;;;9.52;5.43;;;31.40;65.80;;;;;;4962211;28;20024;-75
2023/06/13 06:11:54;;;;;;;11.32;5.53;;;31.70;65.20;;;;;;4936763;29;20360;-75
2023/06/13 06:14:20;;;;;;;13.68;5.70;;;31.90;64.40;;;;;;4953510;29;20479;-76
2023/06/13 06:16:46;;;;;;;11.50;5.60;;;32.10;64.10;;;;;;4953862;29;20031;-75
2023/06/13 06:19:14;;;;;;;13.40;5.80;;;32.70;64.20;;;;;;4951152;29;20345;-76
2023/06/13 06:21:40;;;;;;;15.27;6.03;;;32.90;63.20;;;;;;4953181;29;20035;-76
2023/06/13 06:24:06;;;;;;;10.05;5.22;;;32.90;63.00;;;;;;4949982;29;20395;-76
2023/06/13 06:26:32;;;;;;;14.25;5.75;;;32.70;62.50;;;;;;4934438;29;20020;-75
2023/06/13 06:28:58;;;;;;;9.55;5.75;;;32.60;62.40;;;;;;4938371;28;20023;-75
2023/06/13 06:31:24;;;;;;;11.98;5.50;;;32.60;62.60;;;;;;4965810;28;20394;-74
2023/06/13 06:33:49;;;;;;;11.18;5.97;;;32.80;62.20;;;;;;4975341;28;20042;-75
2023/06/13 06:36:15;;;;;;;12.73;6.15;;;32.80;61.90;;;;;;4956495;29;20494;-74
2023/06/13 06:38:42;;;;;;;13.60;5.97;;;32.80;61.90;;;;;;4959357;28;20024;-77
2023/06/13 06:41:08;;;;;;;10.10;5.22;;;33.00;61.50;;;;;;4968419;28;20042;-75
2023/06/13 06:43:33;;;;;;;17.55;5.97;;;33.50;60.50;;;;;;4976345;28;20058;-75
2023/06/13 06:45:59;;;;;;;14.07;5.63;;;33.70;60.20;;;;;;4958850;28;20035;-77
2023/06/13 06:48:24;;;;;;;12.23;5.30;;;34.00;60.40;;;;;;4949702;28;20066;-73
2023/06/13 06:50:50;;;;;;;12.60;5.45;;;34.20;60.40;;;;;;4955798;28;20039;-76
2023/06/13 06:53:16;;;;;;;12.43;5.65;;;34.40;59.90;;;;;;4939520;29;20078;-75
2023/06/13 06:55:41;;;;;;;11.68;5.43;;;34.60;59.60;;;;;;4956970;29;20057;-75
2023/06/13 06:58:07;;;;;;;8.98;5.38;;;34.80;59.30;;;;;;4956586;29;20023;-76
2023/06/13 07:00:32;;;;;;;10.55;5.20;;;34.90;58.90;;;;;;4954744;29;20224;-74
2023/06/13 07:02:58;;;;;;;11.18;5.85;;;35.00;58.60;;;;;;4957834;28;20364;-75
2023/06/13 07:05:23;;;;;;;11.18;5.75;;;35.00;58.70;;;;;;4964777;28;20403;-74
2023/06/13 07:07:49;;;;;;;12.02;5.85;;;35.30;58.40;;;;;;4956484;29;20023;-77
2023/06/13 07:10:15;;;;;;;10.77;5.63;;;35.70;57.70;;;;;;4956605;29;20043;-77
2023/06/13 07:12:40;;;;;;;10.63;5.28;;;35.80;57.60;;;;;;4956891;28;20439;-75
2023/06/13 07:15:07;;;;;;;13.30;5.82;;;35.90;57.10;;;;;;4966809;28;20030;-78
2023/06/13 07:17:32;;;;;;;13.07;5.60;;;35.90;57.10;;;;;;4956360;29;20031;-75
2023/06/13 07:19:58;;;;;;;17.30;5.57;;;36.20;57.10;;;;;;4956281;29;20051;-75
2023/06/13 07:22:23;;;;;;;13.77;5.75;;;36.50;56.90;;;;;;4956525;29;20027;-75
2023/06/13 07:24:49;;;;;;;14.50;6.97;;;36.80;56.20;;;;;;4959999;28;20044;-73
2023/06/13 07:27:15;;;;;;;11.10;5.40;;;37.20;56.10;;;;;;4965765;28;20130;-75
2023/06/13 07:29:41;;;;;;;11.98;5.18;;;37.50;55.20;;;;;;4938841;29;20031;-73
2023/06/13 07:32:08;;;;;;;9.40;4.80;;;37.80;55.10;;;;;;4956416;29;20027;-75
2023/06/13 07:34:33;;;;;;;11.57;4.65;;;38.10;54.30;;;;;;4956104;29;20031;-76
2023/06/13 07:37:13;;;;;;;12.88;5.53;;;38.10;54.10;;;;;;4954789;29;20082;-77
2023/06/13 07:39:39;;;;;;;10.75;5.15;;;37.90;53.80;;;;;;4940730;29;20111;-73
2023/06/13 07:42:06;;;;;;;14.23;6.18;;;37.70;54.00;;;;;;4953402;28;20130;-75
2023/06/13 07:44:31;;;;;;;11.13;4.90;;;37.60;54.50;;;;;;4936149;28;20424;-73
2023/06/13 07:46:57;;;;;;;11.13;5.20;;;37.40;54.60;;;;;;4936684;29;20039;-74
2023/06/13 07:49:22;;;;;;;12.40;4.85;;;37.10;54.50;;;;;;4935777;29;20028;-76
2023/06/13 07:51:48;;;;;;;15.38;4.88;;;36.50;54.60;;;;;;4936492;29;20043;-77
2023/06/13 07:54:14;;;;;;;11.35;4.15;;;36.20;55.00;;;;;;4936409;29;20387;-78
2023/06/13 07:56:39;;;;;;;10.63;5.05;;;35.70;55.30;;;;;;4933838;29;20046;-75
2023/06/13 07:59:06;;;;;;;9.25;4.45;;;35.00;56.20;;;;;;4936875;29;20035;-74
2023/06/13 08:01:32;;;;;;;7.80;4.68;;;34.40;56.30;;;;;;4940369;29;20071;-77
2023/06/13 08:03:57;;;;;;;8.52;5.00;;;33.80;57.00;;;;;;4936050;29;20036;-73
2023/06/13 08:06:23;;;;;;;12.05;5.15;;;33.40;57.30;;;;;;4935745;29;20538;-77
2023/06/13 08:08:49;;;;;;;10.82;4.88;;;33.00;57.30;;;;;;4936382;29;20032;-77
2023/06/13 08:11:14;;;;;;;10.07;4.68;;;32.80;57.70;;;;;;4950768;29;20054;-73
2023/06/13 08:13:40;;;;;;;8.90;4.72;;;33.00;58.00;;;;;;4955387;29;20027;-73
2023/06/13 08:16:05;;;;;;;8.80;4.00;;;33.20;58.00;;;;;;4955360;29;20031;-77
2023/06/13 08:18:31;;;;;;;9.57;4.68;;;33.70;58.00;;;;;;4955122;29;20023;-75
2023/06/13 08:20:56;;;;;;;13.02;4.78;;;34.00;57.20;;;;;;4955025;29;20031;-75
2023/06/13 08:23:22;;;;;;;9.93;4.22;;;34.40;56.30;;;;;;4955101;29;20035;-75
2023/06/13 08:25:48;;;;;;;5.88;4.55;;;34.90;56.20;;;;;;4937939;29;20023;-75
2023/06/13 08:28:13;;;;;;;8.57;4.45;;;35.50;55.30;;;;;;4955335;28;20059;-78
2023/06/13 08:30:41;;;;;;;8.65;4.47;;;36.30;55.00;;;;;;4955310;29;20039;-73
2023/06/13 08:33:08;;;;;;;7.78;4.40;;;36.90;54.30;;;;;;4955178;29;20082;-74
2023/06/13 08:35:34;;;;;;;6.53;4.60;;;37.10;54.20;;;;;;4954931;29;20464;-75
2023/06/13 08:37:59;;;;;;;7.40;4.22;;;37.60;53.50;;;;;;4954520;29;20034;-74
2023/06/13 08:40:25;;;;;;;7.32;4.88;;;38.00;52.70;;;;;;4954620;29;20038;-73
2023/06/13 08:42:51;;;;;;;12.43;4.70;;;38.50;51.70;;;;;;4950184;28;20044;-74
2023/06/13 08:45:17;;;;;;;8.98;4.80;;;38.60;52.40;;;;;;4935991;29;20439;-76
2023/06/13 08:47:46;;;;;;;10.25;4.63;;;39.00;51.70;;;;;;4935467;29;20048;-74
2023/06/13 08:50:14;;;;;;;9.57;4.90;;;39.40;51.60;;;;;;4935089;29;20079;-77
2023/06/13 08:52:41;;;;;;;10.57;4.55;;;39.80;51.60;;;;;;4935711;29;20024;-74
2023/06/13 08:55:12;;;;;;;12.20;4.70;;;40.20;50.60;;;;;;4935434;29;20055;-76
2023/06/13 08:57:39;;;;;;;11.55;4.85;;;40.40;51.00;;;;;;4935316;29;20392;-75
2023/06/13 09:00:09;;;;;;;10.25;4.55;;;40.50;49.90;;;;;;4935453;29;20043;-78
2023/06/13 09:02:36;;;;;;;11.88;4.50;;;40.30;50.00;;;;;;4918349;29;20032;-76
2023/06/13 09:05:03;;;;;;;6.90;4.13;;;40.50;50.00;;;;;;4935323;29;20062;-75
2023/06/13 09:07:30;;;;;;;9.05;4.50;;;40.50;49.10;;;;;;4935335;29;20024;-74
2023/06/13 09:09:58;;;;;;;8.23;4.53;;;40.30;49.80;;;;;;4935468;29;20431;-74
2023/06/13 09:12:25;;;;;;;10.57;4.82;;;40.50;49.90;;;;;;4934952;29;20123;-75
2023/06/13 09:14:51;;;;;;;8.13;4.38;;;40.70;49.60;;;;;;4935169;29;20040;-74
2023/06/13 09:17:17;;;;;;;8.05;4.40;;;40.90;49.70;;;;;;4934980;29;20040;-75
2023/06/13 09:19:43;;;;;;;6.82;4.70;;;41.30;49.30;;;;;;4935260;29;20024;-75
2023/06/13 09:22:09;;;;;;;9.93;5.20;;;41.50;49.20;;;;;;4935220;29;20023;-75
2023/06/13 09:24:36;;;;;;;9.15;4.35;;;41.40;48.70;;;;;;4933367;29;20028;-75
2023/06/13 09:27:01;;;;;;;9.57;4.82;;;41.20;49.20;;;;;;4938847;29;20447;-75
2023/06/13 09:29:34;;;;;;;6.20;4.60;;;41.10;49.10;;;;;;4954073;29;20153;-75
2023/06/13 09:32:02;;;;;;;7.82;4.82;;;40.90;48.70;;;;;;4937103;29;20130;-76
2023/06/13 09:34:28;;;;;;;10.32;4.75;;;40.90;49.10;;;;;;4953749;29;20043;-75
2023/06/13 09:36:56;;;;;;;8.38;5.00;;;41.10;49.00;;;;;;4954258;29;20027;-75
2023/06/13 09:39:23;;;;;;;14.82;4.85;;;41.20;49.40;;;;;;4954194;29;20027;-74
2023/06/13 09:41:56;;;;;;;7.63;4.90;;;41.30;49.70;;;;;;4953402;29;20071;-74
2023/06/13 09:44:24;;;;;;;7.32;4.75;;;41.10;50.20;;;;;;4954296;29;20032;-75
2023/06/13 09:46:50;;;;;;;10.38;4.80;;;41.00;50.30;;;;;;4936846;29;20028;-74
2023/06/13 09:49:17;;;;;;;9.52;5.05;;;40.50;50.40;;;;;;4954030;29;20042;-75
2023/06/13 09:51:43;;;;;;;5.65;4.22;;;40.10;50.40;;;;;;4953994;29;20039;-75
2023/06/13 09:54:09;;;;;;;10.25;4.72;;;39.80;50.00;;;;;;4950258;28;20042;-75
2023/06/13 09:56:34;;;;;;;10.80;4.65;;;40.00;50.30;;;;;;4951712;29;20023;-74
2023/06/13 09:59:01;;;;;;;6.72;4.28;;;40.20;50.60;;;;;;4935283;29;20053;-74
2023/06/13 10:01:29;;;;;;;8.40;4.75;;;39.90;50.90;;;;;;4947595;29;20038;-74
2023/06/13 10:03:55;;;;;;;12.10;4.70;;;39.60;50.80;;;;;;4953627;29;20459;-74
2023/06/13 10:06:22;;;;;;;7.28;4.75;;;39.50;51.30;;;;;;4956089;28;20035;-74
2023/06/13 10:08:48;;;;;;;8.48;4.68;;;39.30;52.20;;;;;;4957281;29;20026;-74
2023/06/13 10:11:15;;;;;;;7.95;4.60;;;39.20;51.30;;;;;;4957412;29;20043;-74
2023/06/13 10:14:07;;;;;;;9.23;5.07;;;39.20;51.70;;;;;;4942821;29;20083;-74
2023/06/13 10:16:35;;;;;;;10.82;4.50;;;39.10;51.30;;;;;;4929310;29;20059;-74
2023/06/13 10:19:03;;;;;;;10.13;5.13;;;38.90;52.70;;;;;;4938229;29;20082;-74
2023/06/13 10:21:29;;;;;;;8.80;4.70;;;38.70;52.10;;;;;;4937972;29;20027;-74
2023/06/13 10:23:56;;;;;;;6.80;4.53;;;38.60;51.80;;;;;;4938167;29;20024;-76
2023/06/13 10:26:34;;;;;;;9.32;5.13;;;38.60;52.60;;;;;;4937975;29;20368;-74
2023/06/13 10:29:17;;;;;;;7.80;4.70;;;38.50;52.50;;;;;;4938122;29;20369;-75
2023/06/13 10:31:57;;;;;;;9.88;5.13;;;38.70;53.20;;;;;;4937697;29;20396;-76
2023/06/13 10:34:48;;;;;;;9.77;4.25;;;39.20;51.90;;;;;;4938008;29;20024;-76
2023/06/13 10:37:38;;;;;;;6.93;4.80;;;39.20;51.50;;;;;;4937911;29;20476;-74
2023/06/13 10:40:20;;;;;;;9.77;4.90;;;39.50;51.50;;;;;;4937831;29;20421;-75
2023/06/13 10:43:03;;;;;;;9.60;4.78;;;39.50;51.60;;;;;;4937808;29;20081;-74
2023/06/13 10:45:30;;;;;;;9.77;4.40;;;39.30;51.80;;;;;;4937524;29;20028;-75
2023/06/13 10:47:59;;;;;;;8.00;5.03;;;39.10;51.70;;;;;;4949941;29;20023;-73
2023/06/13 10:50:24;;;;;;;9.45;4.53;;;39.20;51.60;;;;;;4956615;29;20028;-75
2023/06/13 10:52:54;;;;;;;5.32;4.05;;;39.20;52.50;;;;;;4956829;29;20085;-74
2023/06/13 10:55:25;;;;;;;7.55;4.68;;;39.40;52.30;;;;;;4939614;29;20028;-76
2023/06/13 10:57:59;;;;;;;10.55;4.82;;;39.40;51.90;;;;;;4956776;29;20028;-73
2023/06/13 11:00:35;;;;;;;8.07;4.45;;;39.20;52.30;;;;;;4956135;29;20046;-76
2023/06/13 11:03:07;;;;;;;8.85;4.35;;;39.20;51.40;;;;;;4956064;29;20073;-74
2023/06/13 11:05:36;;;;;;;8.93;4.43;;;39.10;51.20;;;;;;4956825;29;20039;-74
2023/06/13 11:08:05;;;;;;;8.73;5.20;;;38.90;51.50;;;;;;4955739;29;20027;-74
2023/06/13 11:10:34;;;;;;;8.38;4.45;;;38.70;51.50;;;;;;4956126;28;20027;-74
2023/06/13 11:13:03;;;;;;;10.00;5.38;;;38.80;51.50;;;;;;4956109;29;20043;-74
2023/06/13 11:15:29;;;;;;;9.10;4.68;;;38.60;51.50;;;;;;4955861;29;20027;-73
2023/06/13 11:18:21;;;;;;;11.23;4.72;;;38.40;51.20;;;;;;4956319;28;20034;-73
2023/06/13 11:20:48;;;;;;;7.90;4.47;;;38.10;51.40;;;;;;4926530;28;20043;-75
2023/06/13 11:23:22;;;;;;;7.57;4.30;;;37.90;51.30;;;;;;4955519;29;20042;-75
2023/06/13 11:25:52;;;;;;;7.65;3.92;;;37.80;51.40;;;;;;4955393;29;20490;-77
2023/06/13 11:28:18;;;;;;;10.23;5.45;;;37.80;51.30;;;;;;4955287;29;20038;-73
2023/06/13 11:30:47;;;;;;;8.82;4.60;;;37.80;51.50;;;;;;4943526;29;20183;-74
2023/06/13 11:33:13;;;;;;;10.60;4.72;;;38.20;50.20;;;;;;4949477;29;20027;-74
2023/06/13 11:35:48;;;;;;;11.60;4.82;;;38.70;48.10;;;;;;4946115;29;20122;-74
2023/06/13 11:38:24;;;;;;;9.25;4.45;;;39.20;48.90;;;;;;4936932;29;20035;-74
2023/06/13 11:40:58;;;;;;;7.28;4.03;;;39.70;47.90;;;;;;4935293;29;20035;-74
2023/06/13 11:43:25;;;;;;;10.05;4.65;;;39.70;48.20;;;;;;4953708;29;20133;-75
2023/06/13 11:45:56;;;;;;;7.78;4.22;;;39.50;48.30;;;;;;4955479;28;20109;-75
2023/06/13 11:48:24;;;;;;;7.75;4.32;;;39.40;47.70;;;;;;4955818;29;20101;-77
2023/06/13 11:50:49;;;;;;;4.70;3.90;;;39.30;47.60;;;;;;4928538;29;20035;-74
2023/06/13 11:53:16;;;;;;;9.55;4.60;;;39.30;47.20;;;;;;4956002;29;20046;-73
2023/06/13 11:55:41;;;;;;;7.30;4.38;;;39.30;47.30;;;;;;4955272;29;20027;-75
2023/06/13 11:58:07;;;;;;;6.68;4.15;;;38.90;46.70;;;;;;4955262;29;20075;-74
2023/06/13 12:00:49;;;;;;;7.20;4.10;;;38.80;46.40;;;;;;4955152;29;20031;-74
2023/06/13 12:03:15;;;;;;;9.25;4.10;;;38.60;45.80;;;;;;4955431;29;20027;-74
2023/06/13 12:05:41;;;;;;;9.38;4.10;;;38.60;45.50;;;;;;4955114;29;20027;-76
2023/06/13 12:08:06;;;;;;;8.50;4.30;;;38.50;45.40;;;;;;4955452;29;20086;-74
2023/06/13 12:10:32;;;;;;;9.68;4.50;;;38.50;45.50;;;;;;4954006;29;20041;-75
2023/06/13 12:12:58;;;;;;;10.55;3.88;;;38.60;45.60;;;;;;4954972;29;20033;-74
2023/06/13 12:15:27;;;;;;;7.13;4.05;;;38.70;46.10;;;;;;4954848;29;20043;-74
2023/06/13 12:18:00;;;;;;;5.57;3.70;;;38.80;47.10;;;;;;4937700;29;20479;-76
2023/06/13 12:20:26;;;;;;;8.82;4.18;;;38.80;46.30;;;;;;4954926;29;20031;-73
2023/06/13 12:22:59;;;;;;;9.50;4.13;;;38.60;46.40;;;;;;4955148;29;20127;-74
2023/06/13 12:25:30;;;;;;;9.52;4.40;;;38.40;46.50;;;;;;4954981;29;20023;-74
2023/06/13 12:27:58;;;;;;;5.60;3.88;;;38.40;46.80;;;;;;4954599;28;20023;-76
2023/06/13 12:30:24;;;;;;;6.45;4.10;;;38.20;47.00;;;;;;4954431;29;20126;-74
2023/06/13 12:32:56;;;;;;;7.47;4.35;;;38.10;47.30;;;;;;4954789;29;20038;-74
2023/06/13 12:35:23;;;;;;;8.88;4.40;;;37.80;47.10;;;;;;4953379;29;20024;-74
2023/06/13 12:38:16;;;;;;;4.68;4.18;;;37.30;47.30;;;;;;4954302;29;20027;-77
2023/06/13 12:40:41;;;;;;;11.45;4.45;;;36.80;47.50;;;;;;4952651;29;20043;-75
2023/06/13 12:43:07;;;;;;;9.48;4.22;;;36.50;47.60;;;;;;4937092;29;20083;-74